Time;durP1;ratioP1;P1;durP2;ratioP2;P2;SDS_P1;SDS_P2;PMS_P1;PMS_P2;Temp;Humidity;BMP_temperature;BMP_pressure;BME280_temperature;BME280_humidity;BME280_pressure;Samples;Min_cycle;Max_cycle;Signal;HPM_P1;HPM_P2
2022/11/05 00:09:31;;;;;;;4.30;3.90;;;;;;;;;;5073014;28;20449;-77
2022/11/05 00:17:29;;;;;;;6.20;4.93;;;;;;;;;;5073663;28;20455;-77
2022/11/05 00:19:57;;;;;;;5.63;4.03;;;;;;;;;;5052631;28;20964;-77
2022/11/05 00:25:19;;;;;;;4.20;3.90;;;;;;;;;;5050752;28;20513;-77
2022/11/05 00:27:47;;;;;;;5.30;4.00;;;;;;;;;;5050827;28;20469;-76
2022/11/05 00:30:15;;;;;;;4.13;3.83;;;;;;;;;;5050500;28;20480;-77
2022/11/05 00:32:42;;;;;;;9.30;4.33;;;;;;;;;;5049772;28;20543;-77
2022/11/05 00:35:11;;;;;;;4.00;3.70;;;;;;;;;;5050873;28;20433;-78
2022/11/05 00:37:38;;;;;;;4.17;3.80;;;;;;;;;;5050597;28;20449;-77
2022/11/05 00:40:06;;;;;;;3.83;3.43;;;;;;;;;;5050263;28;20983;-76
2022/11/05 00:45:18;;;;;;;4.47;4.10;;;;;;;;;;5050365;28;20892;-78
2022/11/05 00:50:31;;;;;;;4.53;2.97;;;;;;;;;;5050219;28;20504;-76
2022/11/05 00:52:59;;;;;;;3.40;3.10;;;;;;;;;;5049835;28;20503;-76
2022/11/05 00:55:28;;;;;;;5.00;4.10;;;;;;;;;;5050130;28;20449;-77
2022/11/05 00:57:55;;;;;;;3.90;3.60;;;;;;;;;;5050172;28;20444;-77
2022/11/05 01:00:23;;;;;;;3.60;2.90;;;;;;;;;;5055723;28;20445;-77
2022/11/05 01:02:50;;;;;;;3.43;3.20;;;;;;;;;;5066322;28;20518;-76
2022/11/05 01:05:17;;;;;;;3.50;3.30;;;;;;;;;;5070084;28;20436;-77
2022/11/05 01:07:46;;;;;;;3.50;3.20;;;;;;;;;;5070183;28;20471;-77
2022/11/05 01:10:13;;;;;;;4.37;4.07;;;;;;;;;;5070000;28;20480;-77
2022/11/05 01:12:40;;;;;;;2.87;2.67;;;;;;;;;;5062903;28;20464;-77
2022/11/05 01:15:07;;;;;;;4.00;3.63;;;;;;;;;;5050104;28;20446;-77
2022/11/05 01:17:34;;;;;;;3.77;3.50;;;;;;;;;;5061652;28;20453;-76
2022/11/05 01:20:02;;;;;;;5.40;3.53;;;;;;;;;;5069969;28;20448;-77
2022/11/05 01:22:29;;;;;;;3.33;3.13;;;;;;;;;;5069744;28;20469;-76
2022/11/05 01:24:57;;;;;;;3.67;3.47;;;;;;;;;;5070197;28;20536;-76
2022/11/05 01:27:24;;;;;;;3.37;3.07;;;;;;;;;;5070303;28;20463;-76
2022/11/05 01:29:51;;;;;;;3.47;3.17;;;;;;;;;;5069670;28;20502;-77
2022/11/05 01:32:18;;;;;;;3.47;3.10;;;;;;;;;;5069788;28;20551;-76
2022/11/05 01:34:46;;;;;;;3.67;3.30;;;;;;;;;;5069402;28;20440;-76
2022/11/05 01:37:13;;;;;;;4.10;2.83;;;;;;;;;;5069843;28;20440;-76
2022/11/05 01:39:40;;;;;;;3.10;2.90;;;;;;;;;;5069925;28;20443;-76
2022/11/05 01:42:14;;;;;;;3.30;3.00;;;;;;;;;;5069769;28;20457;-76
2022/11/05 01:44:53;;;;;;;3.10;2.90;;;;;;;;;;5069186;28;20920;-76
2022/11/05 01:47:26;;;;;;;2.80;2.60;;;;;;;;;;5069812;28;20440;-76
2022/11/05 01:49:53;;;;;;;3.10;2.90;;;;;;;;;;5069551;28;20859;-76
2022/11/05 01:52:20;;;;;;;2.77;2.57;;;;;;;;;;5069855;28;20460;-77
2022/11/05 01:54:47;;;;;;;3.03;2.83;;;;;;;;;;5069477;28;20479;-77
2022/11/05 01:57:16;;;;;;;2.73;2.53;;;;;;;;;;5069921;28;20457;-77
2022/11/05 01:59:44;;;;;;;2.63;2.43;;;;;;;;;;5069720;28;20838;-76
2022/11/05 02:02:12;;;;;;;2.47;2.20;;;;;;;;;;5069339;28;20467;-76
2022/11/05 02:04:40;;;;;;;2.30;2.20;;;;;;;;;;5069114;28;20928;-77
2022/11/05 02:07:08;;;;;;;2.83;2.63;;;;;;;;;;5069762;28;20462;-76
2022/11/05 02:09:37;;;;;;;3.03;2.83;;;;;;;;;;5069992;28;20475;-76
2022/11/05 02:12:04;;;;;;;3.07;2.47;;;;;;;;;;5070582;28;20497;-76
2022/11/05 02:14:33;;;;;;;2.53;2.43;;;;;;;;;;5074418;28;20440;-75
2022/11/05 02:17:02;;;;;;;3.83;2.70;;;;;;;;;;5074994;28;20440;-76
2022/11/05 02:19:44;;;;;;;2.67;2.57;;;;;;;;;;5073739;28;20444;-75
2022/11/05 02:22:21;;;;;;;2.40;2.20;;;;;;;;;;5073292;28;20479;-76
2022/11/05 02:25:01;;;;;;;3.20;2.73;;;;;;;;;;5073094;28;20439;-75
2022/11/05 02:27:36;;;;;;;2.33;2.13;;;;;;;;;;5073244;28;20455;-76
2022/11/05 02:30:12;;;;;;;2.60;2.40;;;;;;;;;;5072847;28;20527;-77
2022/11/05 02:32:47;;;;;;;2.50;2.40;;;;;;;;;;5072392;28;20479;-75
2022/11/05 02:35:18;;;;;;;2.70;2.60;;;;;;;;;;5073147;28;20465;-76
2022/11/05 02:37:47;;;;;;;2.57;2.47;;;;;;;;;;5073083;28;20427;-77
2022/11/05 02:40:18;;;;;;;2.50;2.40;;;;;;;;;;5073026;28;20475;-76
2022/11/05 02:42:46;;;;;;;3.47;2.13;;;;;;;;;;5072350;28;20476;-75
2022/11/05 02:45:18;;;;;;;2.37;2.17;;;;;;;;;;5072552;28;20451;-75
2022/11/05 02:47:48;;;;;;;2.37;2.20;;;;;;;;;;5072498;28;20429;-77
2022/11/05 02:50:19;;;;;;;3.10;2.70;;;;;;;;;;5072714;28;20468;-76
2022/11/05 02:52:50;;;;;;;2.57;2.47;;;;;;;;;;5072367;28;20471;-75
2022/11/05 02:55:23;;;;;;;2.70;2.50;;;;;;;;;;5073060;28;20470;-76
2022/11/05 02:57:50;;;;;;;2.77;2.50;;;;;;;;;;5083286;28;20428;-74
2022/11/05 03:00:40;;;;;;;3.13;2.13;;;;;;;;;;5099446;28;20452;-74
2022/11/05 03:03:10;;;;;;;2.50;2.30;;;;;;;;;;5098883;28;20464;-75
2022/11/05 03:05:42;;;;;;;2.90;2.70;;;;;;;;;;5099258;28;20431;-75
2022/11/05 03:08:13;;;;;;;2.17;2.07;;;;;;;;;;5082904;28;20929;-76
2022/11/05 03:10:43;;;;;;;2.40;2.30;;;;;;;;;;5072401;28;20477;-76
2022/11/05 03:13:14;;;;;;;2.70;2.50;;;;;;;;;;5071625;28;21370;-75
2022/11/05 03:15:49;;;;;;;3.40;2.63;;;;;;;;;;5072627;28;20482;-76
2022/11/05 03:18:20;;;;;;;3.17;2.53;;;;;;;;;;5072334;28;20428;-76
2022/11/05 03:20:51;;;;;;;2.97;2.70;;;;;;;;;;5072269;28;20428;-76
2022/11/05 03:23:22;;;;;;;2.40;2.30;;;;;;;;;;5071416;28;20464;-77
2022/11/05 03:25:50;;;;;;;2.57;2.40;;;;;;;;;;5071090;28;20467;-76
2022/11/05 03:28:18;;;;;;;2.23;2.13;;;;;;;;;;5071632;28;20936;-76
2022/11/05 03:30:46;;;;;;;2.50;2.40;;;;;;;;;;5071600;28;20846;-76
2022/11/05 03:33:15;;;;;;;3.60;2.27;;;;;;;;;;5070593;28;20847;-76
2022/11/05 03:35:45;;;;;;;2.50;2.30;;;;;;;;;;5071380;28;20455;-77
2022/11/05 03:38:14;;;;;;;2.40;2.30;;;;;;;;;;5071370;28;20437;-76
2022/11/05 03:40:43;;;;;;;2.60;2.40;;;;;;;;;;5071543;28;20441;-77
2022/11/05 03:43:10;;;;;;;2.73;2.53;;;;;;;;;;5070557;28;20983;-77
2022/11/05 03:45:39;;;;;;;2.93;2.70;;;;;;;;;;5071547;28;20444;-77
2022/11/05 03:48:09;;;;;;;3.23;2.70;;;;;;;;;;5071215;28;20441;-75
2022/11/05 03:50:39;;;;;;;2.47;2.30;;;;;;;;;;5071482;28;20504;-76
2022/11/05 03:53:11;;;;;;;2.67;2.47;;;;;;;;;;5070803;28;20486;-76
2022/11/05 03:55:42;;;;;;;2.60;2.50;;;;;;;;;;5071451;28;20452;-76
2022/11/05 03:58:09;;;;;;;2.40;2.30;;;;;;;;;;5071361;28;20443;-76
2022/11/05 04:00:37;;;;;;;2.63;2.43;;;;;;;;;;5071357;28;20469;-75
2022/11/05 04:03:04;;;;;;;2.83;2.60;;;;;;;;;;5070525;28;20472;-76
2022/11/05 04:05:31;;;;;;;3.37;3.07;;;;;;;;;;5071287;28;20460;-77
2022/11/05 04:13:26;;;;;;;2.40;2.30;;;;;;;;;;5069856;28;20448;-76
2022/11/05 04:18:38;;;;;;;3.00;2.80;;;;;;;;;;5070890;28;20400;-75
2022/11/05 04:24:09;;;;;;;3.27;3.07;;;;;;;;;;5063592;28;20471;-75
2022/11/05 04:26:39;;;;;;;3.17;2.97;;;;;;;;;;5065018;28;20456;-76
2022/11/05 04:31:49;;;;;;;3.57;3.20;;;;;;;;;;5039030;28;20499;-75
2022/11/05 04:34:17;;;;;;;5.33;4.00;;;;;;;;;;5069498;28;20963;-76
2022/11/05 04:36:44;;;;;;;3.80;3.60;;;;;;;;;;5070540;28;20437;-75
2022/11/05 04:39:12;;;;;;;4.40;4.10;;;;;;;;;;5067163;28;20449;-76
2022/11/05 04:41:40;;;;;;;4.37;4.07;;;;;;;;;;5064769;28;20448;-75
2022/11/05 04:44:07;;;;;;;4.63;4.23;;;;;;;;;;5069541;28;20448;-76
2022/11/05 04:46:34;;;;;;;5.43;4.93;;;;;;;;;;5070175;28;20444;-77
2022/11/05 04:49:01;;;;;;;4.90;4.40;;;;;;;;;;5070151;28;20963;-75
2022/11/05 04:51:28;;;;;;;4.43;4.10;;;;;;;;;;5070248;28;20476;-77
2022/11/05 04:53:55;;;;;;;5.37;4.93;;;;;;;;;;5069510;28;20463;-77
2022/11/05 04:56:23;;;;;;;5.60;5.10;;;;;;;;;;5069949;28;20448;-77
2022/11/05 04:58:52;;;;;;;5.20;4.77;;;;;;;;;;5070075;28;20446;-76
2022/11/05 05:01:20;;;;;;;5.00;4.60;;;;;;;;;;5069991;28;20439;-76
2022/11/05 05:03:47;;;;;;;4.60;4.27;;;;;;;;;;5069465;28;20467;-74
2022/11/05 05:06:14;;;;;;;4.60;4.20;;;;;;;;;;5075993;28;20451;-75
2022/11/05 05:08:41;;;;;;;4.30;4.00;;;;;;;;;;5082702;28;20436;-75
2022/11/05 05:11:09;;;;;;;4.47;4.07;;;;;;;;;;5086039;28;20480;-75
2022/11/05 05:13:36;;;;;;;4.30;4.00;;;;;;;;;;5069779;28;20475;-76
2022/11/05 05:16:06;;;;;;;4.97;4.57;;;;;;;;;;5070382;28;20450;-77
2022/11/05 05:18:34;;;;;;;6.17;5.67;;;;;;;;;;5069131;28;20437;-75
2022/11/05 05:23:47;;;;;;;4.80;4.40;;;;;;;;;;5049530;28;20487;-75
2022/11/05 05:26:14;;;;;;;6.23;4.73;;;;;;;;;;5049760;28;20533;-75
2022/11/05 05:28:41;;;;;;;4.60;4.20;;;;;;;;;;5049627;28;20437;-76
2022/11/05 05:31:09;;;;;;;5.40;5.00;;;;;;;;;;5049891;28;20473;-77
2022/11/05 05:33:37;;;;;;;5.23;4.73;;;;;;;;;;5049031;28;20472;-77
2022/11/05 05:36:04;;;;;;;6.17;5.43;;;;;;;;;;5049816;28;20445;-77
2022/11/05 05:38:31;;;;;;;6.50;5.43;;;;;;;;;;5049860;28;20456;-76
2022/11/05 05:40:59;;;;;;;6.77;6.00;;;;;;;;;;5050669;28;20447;-77
2022/11/05 05:43:26;;;;;;;7.30;6.70;;;;;;;;;;5049921;28;20833;-77
2022/11/05 05:45:53;;;;;;;7.47;6.87;;;;;;;;;;5050354;28;20453;-75
2022/11/05 05:48:21;;;;;;;7.70;6.40;;;;;;;;;;5070391;28;20432;-76
2022/11/05 05:50:48;;;;;;;8.23;7.43;;;;;;;;;;5080706;28;20464;-76
2022/11/05 05:53:15;;;;;;;8.03;7.33;;;;;;;;;;5080427;28;20445;-75
2022/11/05 05:55:42;;;;;;;8.90;8.10;;;;;;;;;;5079998;28;20489;-76
2022/11/05 05:58:09;;;;;;;7.87;7.17;;;;;;;;;;5060712;28;20460;-75
2022/11/05 06:00:36;;;;;;;12.07;9.20;;;;;;;;;;5054517;28;20441;-75
2022/11/05 06:03:05;;;;;;;11.30;9.60;;;;;;;;;;5053100;28;20480;-75
2022/11/05 06:05:33;;;;;;;11.03;9.93;;;;;;;;;;5053341;28;20473;-75
2022/11/05 06:08:00;;;;;;;11.93;10.10;;;;;;;;;;5053173;28;20460;-76
2022/11/05 06:10:27;;;;;;;12.73;11.43;;;;;;;;;;5053380;28;20480;-76
2022/11/05 06:12:54;;;;;;;14.13;12.63;;;;;;;;;;5052658;28;20468;-76
2022/11/05 06:15:21;;;;;;;14.20;12.77;;;;;;;;;;5053382;28;20453;-76
2022/11/05 06:17:48;;;;;;;16.10;13.87;;;;;;;;;;5052916;28;20452;-76
2022/11/05 06:20:15;;;;;;;14.83;13.23;;;;;;;;;;5052924;28;20453;-76
2022/11/05 06:22:44;;;;;;;16.07;14.37;;;;;;;;;;5052043;28;20469;-76
2022/11/05 06:25:11;;;;;;;18.67;15.53;;;;;;;;;;5052990;28;20456;-76
2022/11/05 06:27:38;;;;;;;17.97;16.03;;;;;;;;;;5053043;28;20467;-76
2022/11/05 06:30:05;;;;;;;19.50;17.50;;;;;;;;;;5052770;28;20444;-77
2022/11/05 06:32:32;;;;;;;20.53;17.57;;;;;;;;;;5052021;28;20500;-77
2022/11/05 06:34:59;;;;;;;20.60;18.40;;;;;;;;;;5053093;28;20432;-75
2022/11/05 06:37:27;;;;;;;20.80;17.17;;;;;;;;;;5052945;28;20443;-77
2022/11/05 06:39:56;;;;;;;22.23;17.50;;;;;;;;;;5052778;28;20445;-78
2022/11/05 06:42:24;;;;;;;21.30;17.43;;;;;;;;;;5052875;28;20461;-75
2022/11/05 06:44:51;;;;;;;21.70;18.63;;;;;;;;;;5052484;28;20482;-77
2022/11/05 06:47:18;;;;;;;20.63;18.27;;;;;;;;;;5052847;28;20735;-76
2022/11/05 06:49:45;;;;;;;23.20;18.50;;;;;;;;;;5052997;28;20442;-77
2022/11/05 06:52:13;;;;;;;21.57;18.17;;;;;;;;;;5052683;28;20511;-76
2022/11/05 06:54:41;;;;;;;21.27;17.53;;;;;;;;;;5052393;28;20441;-76
2022/11/05 06:57:10;;;;;;;22.20;18.53;;;;;;;;;;5051888;28;20450;-77
2022/11/05 06:59:37;;;;;;;24.50;19.57;;;;;;;;;;5051041;28;20450;-77
2022/11/05 07:02:04;;;;;;;22.50;19.23;;;;;;;;;;5051826;28;20468;-77
2022/11/05 07:04:31;;;;;;;22.50;18.77;;;;;;;;;;5052005;28;20958;-76
2022/11/05 07:06:59;;;;;;;22.07;18.97;;;;;;;;;;5053183;28;20455;-77
2022/11/05 07:09:26;;;;;;;22.73;18.80;;;;;;;;;;5052883;28;20471;-77
2022/11/05 07:11:53;;;;;;;22.27;18.37;;;;;;;;;;5052423;28;20495;-77
2022/11/05 07:14:22;;;;;;;26.10;19.93;;;;;;;;;;5051697;28;20452;-76
2022/11/05 07:16:49;;;;;;;22.77;18.00;;;;;;;;;;5056203;28;20453;-76
2022/11/05 07:19:16;;;;;;;24.17;17.97;;;;;;;;;;5059236;28;20552;-76
2022/11/05 07:21:44;;;;;;;23.70;18.03;;;;;;;;;;5059891;28;20811;-77
2022/11/05 07:24:13;;;;;;;25.23;20.43;;;;;;;;;;5058186;28;20448;-79
2022/11/05 07:26:40;;;;;;;24.80;18.50;;;;;;;;;;5061294;28;20455;-75
2022/11/05 07:29:07;;;;;;;22.47;18.00;;;;;;;;;;5062358;28;20448;-76
2022/11/05 07:31:36;;;;;;;22.07;18.77;;;;;;;;;;5056778;28;20870;-75
2022/11/05 07:34:03;;;;;;;18.73;16.40;;;;;;;;;;5054440;28;20503;-76
2022/11/05 07:36:30;;;;;;;23.60;18.63;;;;;;;;;;5052047;28;20959;-78
2022/11/05 07:38:57;;;;;;;22.30;18.30;;;;;;;;;;5052321;28;20583;-77
2022/11/05 07:41:24;;;;;;;21.97;18.17;;;;;;;;;;5052319;28;20461;-76
2022/11/05 07:43:51;;;;;;;23.47;18.80;;;;;;;;;;5052129;28;20473;-77
2022/11/05 07:46:18;;;;;;;21.07;17.23;;;;;;;;;;5055647;28;20450;-76
2022/11/05 07:48:47;;;;;;;21.63;17.40;;;;;;;;;;5055710;28;20448;-76
2022/11/05 07:51:14;;;;;;;25.30;18.30;;;;;;;;;;5055218;28;20491;-76
2022/11/05 07:53:41;;;;;;;21.97;15.87;;;;;;;;;;5054809;28;20465;-77
2022/11/05 07:56:08;;;;;;;20.03;17.23;;;;;;;;;;5055587;28;20532;-77
2022/11/05 07:58:37;;;;;;;19.47;16.77;;;;;;;;;;5052518;28;20452;-77
2022/11/05 08:01:05;;;;;;;20.70;17.47;;;;;;;;;;5051802;28;20448;-76
2022/11/05 08:03:33;;;;;;;20.37;17.63;;;;;;;;;;5050958;28;20504;-77
2022/11/05 08:06:01;;;;;;;24.40;18.07;;;;;;;;;;5051373;28;20442;-77
2022/11/05 08:08:28;;;;;;;19.80;17.70;;;;;;;;;;5051095;28;20453;-77
2022/11/05 08:11:02;;;;;;;18.87;16.17;;;;;;;;;;5050779;28;20449;-77
2022/11/05 08:13:29;;;;;;;21.67;18.87;;;;;;;;;;5050728;28;20836;-77
2022/11/05 08:15:56;;;;;;;16.20;14.50;;;;;;;;;;5051510;28;20788;-77
2022/11/05 08:18:30;;;;;;;16.43;14.70;;;;;;;;;;5051249;28;20533;-77
2022/11/05 08:20:57;;;;;;;13.73;12.30;;;;;;;;;;5057072;28;20432;-77
2022/11/05 08:23:25;;;;;;;11.17;10.07;;;;;;;;;;5059335;28;20465;-76
2022/11/05 08:25:53;;;;;;;11.50;9.67;;;;;;;;;;5057839;28;20453;-78
2022/11/05 08:28:20;;;;;;;10.40;8.90;;;;;;;;;;5053626;28;20451;-76
2022/11/05 08:30:49;;;;;;;7.67;6.97;;;;;;;;;;5051700;28;21008;-77
2022/11/05 08:33:16;;;;;;;7.60;6.80;;;;;;;;;;5051493;28;20480;-75
2022/11/05 08:35:43;;;;;;;7.23;6.63;;;;;;;;;;5066866;28;20437;-77
2022/11/05 08:38:12;;;;;;;7.00;6.30;;;;;;;;;;5077678;28;20431;-76
2022/11/05 08:40:41;;;;;;;7.43;6.47;;;;;;;;;;5077717;28;20465;-77
2022/11/05 08:43:09;;;;;;;6.17;5.57;;;;;;;;;;5070839;28;20554;-77
2022/11/05 08:45:36;;;;;;;6.90;6.20;;;;;;;;;;5054490;28;20460;-75
2022/11/05 08:48:05;;;;;;;6.80;6.10;;;;;;;;;;5052258;28;20446;-76
2022/11/05 08:50:32;;;;;;;7.87;7.10;;;;;;;;;;5049542;28;20449;-76
2022/11/05 08:52:59;;;;;;;9.97;6.93;;;;;;;;;;5050799;28;20491;-77
2022/11/05 08:55:26;;;;;;;7.10;6.43;;;;;;;;;;5061772;28;20452;-78
2022/11/05 08:57:58;;;;;;;7.53;6.80;;;;;;;;;;5071541;28;20573;-76
2022/11/05 09:00:25;;;;;;;7.47;6.73;;;;;;;;;;5071278;28;20453;-77
2022/11/05 09:02:52;;;;;;;7.17;6.47;;;;;;;;;;5070169;28;20461;-78
2022/11/05 09:05:20;;;;;;;6.30;5.70;;;;;;;;;;5070413;28;20526;-76
2022/11/05 09:07:47;;;;;;;6.97;6.37;;;;;;;;;;5070387;28;20444;-76
2022/11/05 09:10:14;;;;;;;7.07;6.03;;;;;;;;;;5071818;28;20455;-77
2022/11/05 09:12:41;;;;;;;7.40;6.77;;;;;;;;;;5070585;28;20976;-77
2022/11/05 09:15:10;;;;;;;6.57;5.90;;;;;;;;;;5070901;28;20441;-77
2022/11/05 09:17:38;;;;;;;6.57;5.90;;;;;;;;;;5072056;28;20535;-77
2022/11/05 09:20:06;;;;;;;6.57;5.97;;;;;;;;;;5072192;28;20462;-77
2022/11/05 09:22:33;;;;;;;6.47;5.90;;;;;;;;;;5071618;28;20464;-75
2022/11/05 09:25:00;;;;;;;8.57;6.90;;;;;;;;;;5071759;28;20532;-77
2022/11/05 09:27:27;;;;;;;6.93;6.33;;;;;;;;;;5074839;28;20474;-78
2022/11/05 09:29:54;;;;;;;8.10;7.30;;;;;;;;;;5067905;28;20460;-77
2022/11/05 09:32:22;;;;;;;7.20;6.50;;;;;;;;;;5075358;28;20575;-76
2022/11/05 09:34:49;;;;;;;10.57;7.00;;;;;;;;;;5065578;28;20449;-77
2022/11/05 09:37:17;;;;;;;9.53;7.33;;;;;;;;;;5064569;28;20437;-76
2022/11/05 09:39:44;;;;;;;9.63;7.40;;;;;;;;;;5074327;28;20449;-77
2022/11/05 09:42:14;;;;;;;7.50;6.90;;;;;;;;;;5074563;28;20460;-78
2022/11/05 09:44:42;;;;;;;8.70;8.00;;;;;;;;;;5076400;28;20448;-77
2022/11/05 09:47:13;;;;;;;9.90;8.50;;;;;;;;;;5062555;28;20541;-76
2022/11/05 09:49:43;;;;;;;8.80;7.90;;;;;;;;;;5075331;28;20448;-76
2022/11/05 09:52:12;;;;;;;10.27;8.70;;;;;;;;;;5074882;28;20495;-76
2022/11/05 09:54:40;;;;;;;11.63;9.17;;;;;;;;;;5074248;28;20452;-75
2022/11/05 09:57:08;;;;;;;10.60;9.50;;;;;;;;;;5076969;28;20441;-76
2022/11/05 09:59:40;;;;;;;11.90;10.20;;;;;;;;;;5077614;28;20963;-77
2022/11/05 10:02:12;;;;;;;11.70;10.10;;;;;;;;;;5074263;28;20463;-76
2022/11/05 10:04:40;;;;;;;12.70;11.10;;;;;;;;;;5073321;28;20432;-78
2022/11/05 10:07:12;;;;;;;12.87;11.47;;;;;;;;;;5073503;28;20474;-76
2022/11/05 10:09:44;;;;;;;14.43;12.03;;;;;;;;;;5073802;28;20443;-78
2022/11/05 10:12:13;;;;;;;13.80;12.20;;;;;;;;;;5079404;28;20510;-77
2022/11/05 10:14:42;;;;;;;15.20;12.60;;;;;;;;;;5072908;28;20970;-77
2022/11/05 10:17:13;;;;;;;17.00;12.40;;;;;;;;;;5073186;28;20936;-77
2022/11/05 10:19:48;;;;;;;15.60;11.90;;;;;;;;;;5073787;28;20942;-76
2022/11/05 10:22:18;;;;;;;12.70;11.20;;;;;;;;;;5074586;28;20464;-78
2022/11/05 10:24:46;;;;;;;12.57;10.67;;;;;;;;;;5073798;28;20446;-77
2022/11/05 10:27:15;;;;;;;14.23;11.53;;;;;;;;;;5073810;28;20550;-77
2022/11/05 10:29:43;;;;;;;15.00;12.77;;;;;;;;;;5073177;28;20454;-76
2022/11/05 10:32:13;;;;;;;14.20;11.40;;;;;;;;;;5074185;28;20967;-77
2022/11/05 10:34:40;;;;;;;11.47;10.13;;;;;;;;;;5074203;28;20974;-77
2022/11/05 10:37:07;;;;;;;15.00;11.07;;;;;;;;;;5075880;28;20456;-76
2022/11/05 10:39:36;;;;;;;11.93;9.43;;;;;;;;;;5074589;28;20444;-77
2022/11/05 10:42:10;;;;;;;15.23;11.37;;;;;;;;;;5070475;28;20844;-77
2022/11/05 10:44:39;;;;;;;12.90;9.93;;;;;;;;;;5064769;28;20452;-77
2022/11/05 10:47:12;;;;;;;12.90;10.57;;;;;;;;;;5073627;28;20522;-76
2022/11/05 10:49:46;;;;;;;12.03;10.80;;;;;;;;;;5076130;28;20429;-77
2022/11/05 10:52:20;;;;;;;12.70;10.53;;;;;;;;;;5077451;28;20499;-77
2022/11/05 10:54:49;;;;;;;12.73;9.80;;;;;;;;;;5073486;28;20440;-77
2022/11/05 10:57:30;;;;;;;12.80;10.10;;;;;;;;;;5072838;28;20432;-77
2022/11/05 11:00:12;;;;;;;12.07;10.10;;;;;;;;;;5072957;28;20443;-77
2022/11/05 11:02:39;;;;;;;10.10;8.90;;;;;;;;;;5071794;28;20464;-76
2022/11/05 11:05:06;;;;;;;11.83;9.60;;;;;;;;;;5072357;28;20443;-77
2022/11/05 11:07:35;;;;;;;10.00;9.00;;;;;;;;;;5072602;28;20463;-76
2022/11/05 11:10:03;;;;;;;10.90;9.17;;;;;;;;;;5062326;28;20453;-77
2022/11/05 11:12:32;;;;;;;12.90;9.50;;;;;;;;;;5068455;28;20484;-75
2022/11/05 11:15:03;;;;;;;10.07;9.03;;;;;;;;;;5060568;28;20444;-77
2022/11/05 11:17:30;;;;;;;10.50;8.70;;;;;;;;;;5072509;28;20436;-76
2022/11/05 11:20:16;;;;;;;9.23;8.30;;;;;;;;;;5056908;28;20548;-76
2022/11/05 11:22:45;;;;;;;9.53;8.50;;;;;;;;;;5056579;28;20467;-76
2022/11/05 11:25:24;;;;;;;10.80;8.30;;;;;;;;;;5072562;28;20459;-76
2022/11/05 11:27:52;;;;;;;8.90;8.00;;;;;;;;;;5072669;28;20440;-76
2022/11/05 11:30:20;;;;;;;10.37;8.57;;;;;;;;;;5072178;28;20436;-79
2022/11/05 11:32:48;;;;;;;9.40;8.50;;;;;;;;;;5071028;28;20484;-76
2022/11/05 11:35:20;;;;;;;11.37;8.10;;;;;;;;;;5072308;28;20448;-76
2022/11/05 11:37:49;;;;;;;9.70;8.70;;;;;;;;;;5072147;28;20448;-75
2022/11/05 11:40:17;;;;;;;8.83;8.03;;;;;;;;;;5071996;28;20455;-75
2022/11/05 11:42:48;;;;;;;10.57;8.90;;;;;;;;;;5071039;28;20461;-76
2022/11/05 11:45:18;;;;;;;9.70;8.70;;;;;;;;;;5074400;28;20453;-77
2022/11/05 11:47:46;;;;;;;10.63;9.60;;;;;;;;;;5085433;28;20454;-75
2022/11/05 11:50:34;;;;;;;10.87;9.33;;;;;;;;;;5083441;28;20452;-76
2022/11/05 11:53:17;;;;;;;10.63;9.10;;;;;;;;;;5076816;28;20484;-76
2022/11/05 11:55:56;;;;;;;9.90;8.90;;;;;;;;;;5072369;28;20436;-77
2022/11/05 11:58:35;;;;;;;11.77;9.60;;;;;;;;;;5072160;28;20435;-77
2022/11/05 12:01:06;;;;;;;11.23;10.07;;;;;;;;;;5071788;28;20452;-76
2022/11/05 12:03:36;;;;;;;10.97;9.80;;;;;;;;;;5072223;28;20453;-77
2022/11/05 12:06:07;;;;;;;11.00;9.93;;;;;;;;;;5071472;28;20448;-76
2022/11/05 12:08:38;;;;;;;12.70;9.80;;;;;;;;;;5071717;28;20873;-77
2022/11/05 12:11:07;;;;;;;10.50;9.40;;;;;;;;;;5071671;28;20429;-76
2022/11/05 12:13:42;;;;;;;9.73;8.30;;;;;;;;;;5070916;28;20480;-77
2022/11/05 12:16:14;;;;;;;9.77;8.83;;;;;;;;;;5071921;28;20794;-76
2022/11/05 12:18:45;;;;;;;10.10;8.50;;;;;;;;;;5071578;28;20508;-75
2022/11/05 12:21:15;;;;;;;9.53;8.33;;;;;;;;;;5071752;28;20897;-76
2022/11/05 12:23:55;;;;;;;8.67;7.60;;;;;;;;;;5071100;28;20456;-77
2022/11/05 12:26:25;;;;;;;9.10;8.20;;;;;;;;;;5071630;28;20451;-76
2022/11/05 12:29:02;;;;;;;8.60;7.70;;;;;;;;;;5071986;28;20822;-77
2022/11/05 12:31:33;;;;;;;7.50;6.80;;;;;;;;;;5063956;28;21174;-77
2022/11/05 12:34:08;;;;;;;7.83;6.80;;;;;;;;;;5070186;28;20504;-75
2022/11/05 12:36:47;;;;;;;6.97;6.37;;;;;;;;;;5070750;28;20433;-76
2022/11/05 12:39:21;;;;;;;9.20;6.90;;;;;;;;;;5070362;28;20964;-75
2022/11/05 12:41:54;;;;;;;8.73;7.40;;;;;;;;;;5069931;28;20441;-75
2022/11/05 12:44:30;;;;;;;7.53;6.83;;;;;;;;;;5070500;28;20428;-75
2022/11/05 12:47:06;;;;;;;7.70;6.97;;;;;;;;;;5070348;28;20425;-75
2022/11/05 12:49:38;;;;;;;7.13;6.43;;;;;;;;;;5070232;28;20478;-76
2022/11/05 12:52:11;;;;;;;8.83;6.70;;;;;;;;;;5070408;28;20928;-76
2022/11/05 12:54:44;;;;;;;8.50;7.40;;;;;;;;;;5069963;28;20448;-75
2022/11/05 12:57:12;;;;;;;7.07;6.47;;;;;;;;;;5070878;28;20425;-76
2022/11/05 12:59:44;;;;;;;7.13;6.53;;;;;;;;;;5071320;28;20441;-76
2022/11/05 13:02:14;;;;;;;6.87;6.17;;;;;;;;;;5070156;28;20464;-76
2022/11/05 13:04:43;;;;;;;6.73;6.13;;;;;;;;;;5070923;28;20536;-76
2022/11/05 13:07:14;;;;;;;6.93;6.23;;;;;;;;;;5071926;28;20456;-76
2022/11/05 13:09:44;;;;;;;9.13;6.47;;;;;;;;;;5071464;28;20477;-76
2022/11/05 13:12:12;;;;;;;7.30;6.70;;;;;;;;;;5071239;28;20465;-78
2022/11/05 13:14:43;;;;;;;8.13;6.73;;;;;;;;;;5070924;28;20437;-77
2022/11/05 13:17:14;;;;;;;8.70;6.33;;;;;;;;;;5070594;28;20440;-76
2022/11/05 13:19:44;;;;;;;6.53;5.93;;;;;;;;;;5072911;28;20445;-77
2022/11/05 13:22:15;;;;;;;6.47;5.97;;;;;;;;;;5073783;28;20491;-77
2022/11/05 13:24:47;;;;;;;6.20;5.60;;;;;;;;;;5072974;28;20431;-76
2022/11/05 13:27:23;;;;;;;6.57;5.97;;;;;;;;;;5073187;28;20462;-76
2022/11/05 13:29:51;;;;;;;6.93;5.93;;;;;;;;;;5071494;28;20923;-75
2022/11/05 13:32:29;;;;;;;6.80;6.10;;;;;;;;;;5075198;28;20465;-76
2022/11/05 13:34:57;;;;;;;7.07;6.10;;;;;;;;;;5073460;28;20501;-76
2022/11/05 13:40:13;;;;;;;6.70;6.13;;;;;;;;;;5073469;28;20442;-76
2022/11/05 13:43:01;;;;;;;5.63;5.23;;;;;;;;;;5074603;28;20463;-77
2022/11/05 13:45:43;;;;;;;7.27;6.57;;;;;;;;;;5074926;28;20429;-75
2022/11/05 13:48:24;;;;;;;7.63;5.77;;;;;;;;;;5084013;28;20439;-76
2022/11/05 13:50:59;;;;;;;7.83;7.00;;;;;;;;;;5080116;28;20455;-78
2022/11/05 13:53:38;;;;;;;7.03;6.40;;;;;;;;;;5078179;28;20484;-76
2022/11/05 13:56:10;;;;;;;9.20;6.50;;;;;;;;;;5074101;28;20516;-76
2022/11/05 13:58:47;;;;;;;6.77;5.67;;;;;;;;;;5073155;28;20417;-76
2022/11/05 14:01:19;;;;;;;6.50;5.90;;;;;;;;;;5073175;28;20429;-77
2022/11/05 14:03:49;;;;;;;7.10;6.40;;;;;;;;;;5072836;28;20460;-78
2022/11/05 14:06:23;;;;;;;6.57;5.90;;;;;;;;;;5072870;28;20441;-76
2022/11/05 14:08:50;;;;;;;7.40;6.70;;;;;;;;;;5073050;28;20516;-76
2022/11/05 14:11:21;;;;;;;9.00;6.67;;;;;;;;;;5076066;28;20794;-76
2022/11/05 14:13:51;;;;;;;7.53;6.83;;;;;;;;;;5075705;28;20479;-77
2022/11/05 14:16:20;;;;;;;8.30;7.50;;;;;;;;;;5077459;28;20440;-75
2022/11/05 14:18:49;;;;;;;7.57;6.97;;;;;;;;;;5076928;28;20440;-76
2022/11/05 14:21:33;;;;;;;7.60;6.10;;;;;;;;;;5076930;28;20451;-76
2022/11/05 14:24:01;;;;;;;6.20;5.60;;;;;;;;;;5077045;28;20440;-77
2022/11/05 14:26:28;;;;;;;9.50;6.00;;;;;;;;;;5058476;28;20441;-76
2022/11/05 14:29:29;;;;;;;7.10;6.20;;;;;;;;;;5058390;28;20866;-77
2022/11/05 14:32:03;;;;;;;9.33;6.40;;;;;;;;;;5056979;28;20457;-76
2022/11/05 14:34:54;;;;;;;6.33;5.73;;;;;;;;;;5058162;28;20502;-76
2022/11/05 14:37:30;;;;;;;7.43;5.90;;;;;;;;;;5039348;28;20449;-78
2022/11/05 14:40:00;;;;;;;6.60;6.00;;;;;;;;;;5052959;28;20851;-77
2022/11/05 14:42:28;;;;;;;6.27;5.77;;;;;;;;;;5052802;28;20552;-77
2022/11/05 14:45:01;;;;;;;8.47;7.40;;;;;;;;;;5052890;28;20441;-77
2022/11/05 14:47:30;;;;;;;6.77;5.80;;;;;;;;;;5053368;28;20825;-77
2022/11/05 14:50:01;;;;;;;8.70;6.67;;;;;;;;;;5053549;28;20438;-77
2022/11/05 14:52:29;;;;;;;7.93;6.37;;;;;;;;;;5053293;28;20461;-77
2022/11/05 14:54:58;;;;;;;8.23;6.70;;;;;;;;;;5052809;28;20485;-78
2022/11/05 14:57:46;;;;;;;9.10;6.30;;;;;;;;;;5053167;28;20442;-77
2022/11/05 15:00:27;;;;;;;6.57;5.97;;;;;;;;;;5052734;28;20456;-77
2022/11/05 15:02:56;;;;;;;8.17;6.03;;;;;;;;;;5052128;28;20464;-77
2022/11/05 15:05:36;;;;;;;8.90;6.60;;;;;;;;;;5053277;28;20457;-76
2022/11/05 15:08:18;;;;;;;8.50;6.67;;;;;;;;;;5053160;28;20425;-77
2022/11/05 15:10:48;;;;;;;7.07;5.70;;;;;;;;;;5052472;28;20809;-77
2022/11/05 15:13:26;;;;;;;7.80;6.60;;;;;;;;;;5063787;28;20481;-77
2022/11/05 15:15:53;;;;;;;8.93;6.80;;;;;;;;;;5072362;28;20447;-76
2022/11/05 15:18:25;;;;;;;8.93;7.00;;;;;;;;;;5072162;28;20441;-77
2022/11/05 15:20:55;;;;;;;8.23;7.00;;;;;;;;;;5071687;28;20431;-76
2022/11/05 15:23:22;;;;;;;8.57;6.60;;;;;;;;;;5071392;28;20747;-77
2022/11/05 15:26:11;;;;;;;7.60;5.73;;;;;;;;;;5071938;28;20508;-77
2022/11/05 15:28:53;;;;;;;7.83;6.40;;;;;;;;;;5058540;28;20444;-77
2022/11/05 15:31:23;;;;;;;8.20;6.70;;;;;;;;;;5059171;28;20452;-75
2022/11/05 15:33:50;;;;;;;8.77;5.83;;;;;;;;;;5058772;28;20484;-75